createdAt,value
2022-11-22T00:00:48.577Z,9.50
2022-11-22T00:03:20.644Z,9.50
2022-11-22T00:05:52.560Z,9.50
2022-11-22T00:08:24.627Z,9.40
2022-11-22T00:10:56.594Z,9.40
2022-11-22T00:13:28.468Z,9.50
2022-11-22T00:16:03.007Z,9.50
2022-11-22T00:18:34.953Z,9.50
2022-11-22T00:21:08.514Z,9.50
2022-11-22T00:23:40.457Z,9.50
2022-11-22T00:26:12.458Z,9.50
2022-11-22T00:28:44.433Z,9.50
2022-11-22T00:31:16.625Z,9.50
2022-11-22T00:33:48.552Z,9.50
2022-11-22T00:36:20.705Z,9.50
2022-11-22T00:38:52.997Z,9.40
2022-11-22T00:41:24.885Z,9.50
2022-11-22T00:43:56.770Z,9.50
2022-11-22T00:46:28.731Z,9.50
2022-11-22T00:49:00.648Z,9.50
2022-11-22T00:51:32.612Z,9.40
2022-11-22T00:54:04.846Z,9.40
2022-11-22T00:56:36.982Z,9.40
2022-11-22T00:59:08.900Z,9.30
2022-11-22T01:01:40.917Z,9.30
2022-11-22T01:04:12.951Z,9.30
2022-11-22T01:06:44.855Z,9.30
2022-11-22T01:09:21.022Z,9.30
2022-11-22T01:11:53.031Z,9.20
2022-11-22T01:14:24.979Z,9.20
2022-11-22T01:16:56.948Z,9.20
2022-11-22T01:19:29.043Z,9.20
2022-11-22T01:22:01.252Z,9.10
2022-11-22T01:24:33.173Z,9.10
2022-11-22T01:27:05.113Z,9.10
2022-11-22T01:29:37.221Z,9.10
2022-11-22T01:32:09.116Z,9.00
2022-11-22T01:34:41.047Z,9.00
2022-11-22T01:37:12.981Z,9.00
2022-11-22T01:39:44.919Z,9.00
2022-11-22T01:42:17.014Z,9.00
2022-11-22T01:44:50.629Z,8.90
2022-11-22T01:47:25.224Z,8.90
2022-11-22T01:50:07.612Z,8.90
2022-11-22T01:52:39.537Z,8.90
2022-11-22T01:55:13.427Z,8.90
2022-11-22T01:57:47.404Z,8.90
2022-11-22T02:00:19.623Z,8.80
2022-11-22T02:02:56.421Z,8.80
2022-11-22T02:05:34.088Z,8.80
2022-11-22T02:08:24.718Z,8.80
2022-11-22T02:11:01.620Z,8.80
2022-11-22T02:13:40.316Z,8.80
2022-11-22T02:16:12.747Z,8.70
2022-11-22T02:18:44.734Z,8.70
2022-11-22T02:21:16.740Z,8.70
2022-11-22T02:24:25.598Z,8.70
2022-11-22T02:26:58.458Z,8.70
2022-11-22T02:29:32.442Z,8.70
2022-11-22T02:32:04.754Z,8.70
2022-11-22T02:34:51.194Z,8.70
2022-11-22T02:37:32.477Z,8.60
2022-11-22T02:40:09.474Z,8.60
2022-11-22T02:42:49.041Z,8.60
2022-11-22T02:45:21.055Z,8.60
2022-11-22T02:47:53.065Z,8.60
2022-11-22T02:50:24.991Z,8.60
2022-11-22T02:52:56.878Z,8.50
2022-11-22T02:55:28.891Z,8.50
2022-11-22T02:58:01.066Z,8.50
2022-11-22T03:00:38.823Z,8.50
2022-11-22T03:03:10.762Z,8.50
2022-11-22T03:05:42.675Z,8.50
2022-11-22T03:08:14.599Z,8.50
2022-11-22T03:10:46.483Z,8.50
2022-11-22T03:13:18.457Z,8.40
2022-11-22T03:15:50.415Z,8.40
2022-11-22T03:18:22.658Z,8.40
2022-11-22T03:20:54.603Z,8.40
2022-11-22T03:23:26.582Z,8.40
2022-11-22T03:25:58.897Z,8.40
2022-11-22T03:28:30.785Z,8.40
2022-11-22T03:31:06.691Z,8.40
2022-11-22T03:33:38.626Z,8.30
2022-11-22T03:36:10.676Z,8.30
2022-11-22T03:38:42.574Z,8.30
2022-11-22T03:41:14.608Z,8.30
2022-11-22T03:43:46.524Z,8.30
2022-11-22T03:46:20.393Z,8.30
2022-11-22T03:48:52.355Z,8.30
2022-11-22T03:51:24.330Z,8.20
2022-11-22T03:53:57.713Z,8.20
2022-11-22T03:56:29.728Z,8.20
2022-11-22T03:59:01.726Z,8.20
2022-11-22T04:01:33.598Z,8.10
2022-11-22T04:04:05.844Z,8.10
2022-11-22T04:06:38.560Z,8.10
2022-11-22T04:09:10.719Z,8.10
2022-11-22T04:11:42.724Z,8.10
2022-11-22T04:14:33.485Z,8.00
2022-11-22T04:17:05.448Z,8.00
2022-11-22T04:19:37.366Z,8.00
2022-11-22T04:22:09.281Z,8.00
2022-11-22T04:24:59.728Z,8.00
2022-11-22T04:27:31.628Z,7.90
2022-11-22T04:30:03.841Z,7.90
2022-11-22T04:32:53.326Z,7.90
2022-11-22T04:35:25.210Z,7.80
2022-11-22T04:37:57.078Z,7.80
2022-11-22T04:40:29.080Z,7.80
2022-11-22T04:43:19.914Z,7.80
2022-11-22T04:45:52.425Z,7.70
2022-11-22T04:48:24.374Z,7.70
2022-11-22T04:51:24.014Z,7.70
2022-11-22T04:53:55.940Z,7.60
2022-11-22T04:56:27.876Z,7.60
2022-11-22T04:58:59.799Z,7.60
2022-11-22T05:01:31.786Z,7.60
2022-11-22T05:04:03.831Z,7.60
2022-11-22T05:06:37.264Z,7.60
2022-11-22T05:09:09.183Z,7.50
2022-11-22T05:11:41.761Z,7.50
2022-11-22T05:14:14.036Z,7.50
2022-11-22T05:16:45.965Z,7.50
2022-11-22T05:19:17.867Z,7.50
2022-11-22T05:21:49.770Z,7.50
2022-11-22T05:24:21.661Z,7.50
2022-11-22T05:26:53.555Z,7.40
2022-11-22T05:29:25.490Z,7.40
2022-11-22T05:31:57.384Z,7.40
2022-11-22T05:34:29.338Z,7.40
2022-11-22T05:37:01.214Z,7.40
2022-11-22T05:39:33.172Z,7.40
2022-11-22T05:42:05.990Z,7.40
2022-11-22T05:44:37.982Z,7.30
2022-11-22T05:47:10.596Z,7.30
2022-11-22T05:49:46.081Z,7.30
2022-11-22T05:52:17.989Z,7.30
2022-11-22T05:54:49.883Z,7.30
2022-11-22T05:57:21.757Z,7.30
2022-11-22T05:59:54.512Z,7.20
2022-11-22T06:02:26.836Z,7.20
2022-11-22T06:04:58.861Z,7.30
2022-11-22T06:07:30.795Z,7.30
2022-11-22T06:10:02.905Z,7.20
2022-11-22T06:12:35.689Z,7.20
2022-11-22T06:15:08.530Z,7.30
2022-11-22T06:17:40.461Z,7.20
2022-11-22T06:20:12.846Z,7.20
2022-11-22T06:22:44.834Z,7.20
2022-11-22T06:25:16.983Z,7.30
2022-11-22T06:27:48.888Z,7.30
2022-11-22T06:30:20.790Z,7.20
2022-11-22T06:32:52.660Z,7.20
2022-11-22T06:35:24.626Z,7.20
2022-11-22T06:38:00.701Z,7.20
2022-11-22T06:40:33.031Z,7.20
2022-11-22T06:43:05.760Z,7.30
2022-11-22T06:45:37.654Z,7.20
2022-11-22T06:48:09.571Z,7.20
2022-11-22T06:50:41.467Z,7.10
2022-11-22T06:53:32.397Z,7.10
2022-11-22T06:56:12.000Z,7.10
2022-11-22T06:58:45.332Z,7.10
2022-11-22T07:01:22.142Z,7.10
2022-11-22T07:03:58.971Z,7.10
2022-11-22T07:06:39.070Z,7.10
2022-11-22T07:09:11.883Z,7.10
2022-11-22T07:11:43.990Z,7.10
2022-11-22T07:14:15.939Z,7.20
2022-11-22T07:16:47.999Z,7.10
2022-11-22T07:19:20.002Z,7.20
2022-11-22T07:21:52.083Z,7.20
2022-11-22T07:24:23.980Z,7.20
2022-11-22T07:26:55.930Z,7.20
2022-11-22T07:29:28.168Z,7.20
2022-11-22T07:32:00.315Z,7.20
2022-11-22T07:34:32.271Z,7.20
2022-11-22T07:37:08.906Z,7.20
2022-11-22T07:39:41.163Z,7.20
2022-11-22T07:42:13.276Z,7.30
2022-11-22T07:44:45.162Z,7.30
2022-11-22T07:47:22.602Z,7.30
2022-11-22T07:49:54.886Z,7.30
2022-11-22T07:52:26.813Z,7.30
2022-11-22T07:54:58.749Z,7.30
2022-11-22T07:57:30.624Z,7.40
2022-11-22T08:00:02.929Z,7.40
2022-11-22T08:02:34.874Z,7.40
2022-11-22T08:05:08.327Z,7.40
2022-11-22T08:07:54.002Z,7.50
2022-11-22T08:10:26.073Z,7.50
2022-11-22T08:13:01.338Z,7.50
2022-11-22T08:15:33.320Z,7.50
2022-11-22T08:18:05.424Z,7.50
2022-11-22T08:20:37.315Z,7.60
2022-11-22T08:23:09.248Z,7.60
2022-11-22T08:25:41.210Z,7.60
2022-11-22T08:28:13.096Z,7.60
2022-11-22T08:30:45.052Z,7.60
2022-11-22T08:33:17.047Z,7.70
2022-11-22T08:35:50.833Z,7.70
2022-11-22T08:38:22.793Z,7.70
2022-11-22T08:40:55.195Z,7.70
2022-11-22T08:43:27.089Z,7.70
2022-11-22T08:46:00.113Z,7.70
2022-11-22T08:48:35.685Z,7.70
2022-11-22T08:51:11.602Z,7.70
2022-11-22T08:53:44.531Z,7.80
2022-11-22T08:56:16.614Z,7.80
2022-11-22T08:58:48.674Z,7.80
2022-11-22T09:01:21.760Z,7.80
2022-11-22T09:03:53.704Z,7.80
2022-11-22T09:12:09.990Z,7.90
2022-11-22T09:14:41.890Z,7.90
2022-11-22T09:17:17.797Z,7.90
2022-11-22T09:19:50.342Z,8.00
2022-11-22T09:22:26.965Z,7.90
2022-11-22T09:25:00.495Z,8.00
2022-11-22T09:27:35.244Z,8.00
2022-11-22T09:30:08.189Z,8.10
2022-11-22T09:32:40.063Z,8.10
2022-11-22T09:35:12.053Z,8.10
2022-11-22T09:37:43.974Z,8.20
2022-11-22T09:40:16.639Z,8.20
2022-11-22T09:43:16.294Z,8.30
2022-11-22T09:46:40.427Z,8.40
2022-11-22T09:49:28.553Z,8.40
2022-11-22T09:52:20.204Z,8.40
2022-11-22T09:55:02.045Z,8.40
2022-11-22T09:57:49.870Z,8.40
2022-11-22T10:00:26.100Z,8.40
2022-11-22T10:03:12.199Z,8.40
2022-11-22T10:05:52.760Z,8.40
2022-11-22T10:08:36.523Z,8.40
2022-11-22T10:11:36.864Z,8.40
2022-11-22T10:14:36.468Z,8.50
2022-11-22T10:18:06.460Z,8.50
2022-11-22T10:20:48.465Z,8.50
2022-11-22T10:23:24.572Z,8.40
2022-11-22T10:26:11.382Z,8.40
2022-11-22T10:28:53.277Z,8.40
2022-11-22T10:31:43.697Z,8.50
2022-11-22T10:34:40.809Z,8.50
2022-11-22T10:37:40.508Z,8.40
2022-11-22T10:40:46.576Z,8.40
2022-11-22T10:43:39.281Z,8.50
2022-11-22T10:46:18.205Z,8.50
2022-11-22T10:49:23.009Z,8.50
2022-11-22T10:52:34.728Z,8.60
2022-11-22T10:55:27.616Z,8.60
2022-11-22T10:58:23.590Z,8.70
2022-11-22T11:01:17.724Z,8.70
2022-11-22T11:03:54.923Z,8.80
2022-11-22T11:10:10.112Z,8.80
2022-11-22T11:12:50.252Z,8.80
2022-11-22T11:15:54.435Z,8.90
2022-11-22T11:18:40.837Z,8.90
2022-11-22T11:21:16.221Z,8.90
2022-11-22T11:23:48.532Z,8.90
2022-11-22T11:26:25.916Z,8.90
2022-11-22T11:29:38.988Z,8.90
2022-11-22T11:32:15.961Z,8.90
2022-11-22T11:35:04.405Z,8.90
2022-11-22T11:37:38.939Z,8.90
2022-11-22T11:40:31.019Z,8.90
2022-11-22T11:43:24.102Z,8.90
2022-11-22T11:46:16.406Z,9.00
2022-11-22T11:48:54.214Z,9.00
2022-11-22T11:51:45.395Z,9.10
2022-11-22T11:54:21.829Z,9.10
2022-11-22T11:57:03.885Z,9.10
2022-11-22T11:59:38.497Z,9.10
2022-11-22T12:02:40.713Z,9.10
2022-11-22T12:05:15.673Z,9.10
2022-11-22T12:07:49.582Z,9.20
2022-11-22T12:10:56.684Z,9.20
2022-11-22T12:14:05.068Z,9.20
2022-11-22T12:16:44.099Z,9.20
2022-11-22T12:19:42.573Z,9.20
2022-11-22T12:22:48.907Z,9.20
2022-11-22T12:25:37.902Z,9.30
2022-11-22T12:28:23.621Z,9.30
2022-11-22T12:31:15.472Z,9.30
2022-11-22T12:33:56.258Z,9.30
2022-11-22T12:36:42.227Z,9.40
2022-11-22T12:39:24.967Z,9.40
2022-11-22T12:42:23.050Z,9.40
2022-11-22T12:45:10.902Z,9.40
2022-11-22T12:47:47.039Z,9.40
2022-11-22T12:50:44.027Z,9.50
2022-11-22T12:53:40.965Z,9.50
2022-11-22T12:56:18.937Z,9.40
2022-11-22T12:59:10.774Z,9.50
2022-11-22T13:01:48.685Z,9.50
2022-11-22T13:04:32.696Z,9.50
2022-11-22T13:07:28.098Z,9.50
2022-11-22T13:10:12.088Z,9.50
2022-11-22T13:12:46.011Z,9.50
2022-11-22T13:15:31.110Z,9.50
2022-11-22T13:18:08.505Z,9.50
2022-11-22T13:21:01.427Z,9.50
2022-11-22T13:23:52.800Z,9.50
2022-11-22T13:26:58.688Z,9.60
2022-11-22T13:29:34.577Z,9.50
2022-11-22T13:32:12.671Z,9.60
2022-11-22T13:35:32.685Z,9.60
2022-11-22T13:38:18.172Z,9.60
2022-11-22T13:40:51.484Z,9.60
2022-11-22T13:43:51.161Z,9.60
2022-11-22T13:46:55.280Z,9.60
2022-11-22T13:49:47.996Z,9.60
2022-11-22T13:52:20.722Z,9.60
2022-11-22T13:54:58.450Z,9.60
2022-11-22T13:57:30.417Z,9.60
2022-11-22T14:00:14.981Z,9.60
2022-11-22T14:03:17.498Z,9.60
2022-11-22T14:05:52.613Z,9.60
2022-11-22T14:08:42.445Z,9.60
2022-11-22T14:11:40.833Z,9.60
2022-11-22T14:14:57.264Z,9.50
2022-11-22T14:17:44.519Z,9.50
2022-11-22T14:21:00.386Z,9.50
2022-11-22T14:23:57.306Z,9.50
2022-11-22T14:27:00.231Z,9.50
2022-11-22T14:30:15.116Z,9.50
2022-11-22T14:33:02.524Z,9.50
2022-11-22T14:35:59.250Z,9.50
2022-11-22T14:38:35.713Z,9.50
2022-11-22T14:41:30.402Z,9.60
2022-11-22T14:44:21.212Z,9.60
2022-11-22T14:47:04.727Z,9.60
2022-11-22T14:49:48.372Z,9.60
2022-11-22T14:52:29.792Z,9.60
2022-11-22T14:55:06.349Z,9.50
2022-11-22T14:57:38.992Z,9.50
2022-11-22T15:00:19.194Z,9.50
2022-11-22T15:03:28.739Z,9.50
2022-11-22T15:09:18.391Z,9.50
2022-11-22T15:10:16.609Z,9.50
2022-11-22T15:13:27.700Z,9.50
2022-11-22T15:57:55.831Z,9.30
2022-11-22T16:00:29.639Z,9.30
2022-11-22T16:03:04.278Z,9.30
2022-11-22T16:06:05.694Z,9.30
2022-11-22T16:08:32.819Z,9.30
2022-11-22T16:11:05.857Z,9.30
2022-11-22T16:13:38.451Z,9.40
2022-11-22T16:16:13.440Z,9.40
2022-11-22T16:18:48.334Z,9.40
2022-11-22T16:21:29.342Z,9.40
2022-11-22T16:24:19.129Z,9.30
2022-11-22T16:27:12.540Z,9.40
2022-11-22T16:29:51.416Z,9.40
2022-11-22T16:32:23.682Z,9.40
2022-11-22T16:35:14.643Z,9.40
2022-11-22T16:37:48.344Z,9.40
2022-11-22T16:40:20.453Z,9.40
2022-11-22T16:42:52.514Z,9.40
2022-11-22T16:45:24.470Z,9.50
2022-11-22T16:48:16.647Z,9.50
2022-11-22T16:50:57.998Z,9.50
2022-11-22T16:53:47.101Z,9.50
2022-11-22T16:56:21.647Z,9.50
2022-11-22T16:58:56.307Z,9.50
2022-11-22T17:01:34.135Z,9.60
2022-11-22T17:04:06.230Z,9.60
2022-11-22T17:06:38.284Z,9.60
2022-11-22T17:09:10.281Z,9.60
2022-11-22T17:11:44.497Z,9.60
2022-11-22T17:14:18.938Z,9.60
2022-11-22T17:16:50.845Z,9.60
2022-11-22T17:19:52.683Z,9.60
2022-11-22T17:22:17.632Z,9.60
2022-11-22T17:24:49.626Z,9.70
2022-11-22T17:27:21.556Z,9.70
2022-11-22T17:29:53.463Z,9.70
2022-11-22T17:32:25.406Z,9.70
2022-11-22T17:34:57.322Z,9.70
2022-11-22T17:37:29.771Z,9.70
2022-11-22T17:40:02.205Z,9.70
2022-11-22T17:42:40.757Z,9.70
2022-11-22T17:45:13.412Z,9.70
2022-11-22T17:47:45.395Z,9.80
2022-11-22T17:50:17.398Z,9.70
2022-11-22T17:52:49.388Z,9.70
2022-11-22T17:55:21.354Z,9.70
2022-11-22T17:57:55.954Z,9.80
2022-11-22T18:00:30.273Z,9.80
2022-11-22T18:03:07.892Z,9.80
2022-11-22T18:05:40.192Z,9.80
2022-11-22T18:08:12.242Z,9.80
2022-11-22T18:10:44.205Z,9.80
2022-11-22T18:13:23.367Z,9.80
2022-11-22T18:16:02.977Z,9.80
2022-11-22T18:18:56.133Z,9.80
2022-11-22T18:21:32.351Z,9.80
2022-11-22T18:24:04.692Z,9.80
2022-11-22T18:26:41.152Z,9.80
2022-11-22T18:32:06.181Z,9.80
2022-11-22T18:34:38.344Z,9.80
2022-11-22T18:37:10.596Z,9.80
2022-11-22T18:39:42.611Z,9.80
2022-11-22T18:42:16.730Z,9.70
2022-11-22T18:44:48.814Z,9.70
2022-11-22T18:47:20.821Z,9.80
2022-11-22T18:49:52.800Z,9.80
2022-11-22T18:52:26.515Z,9.80
2022-11-22T18:54:58.502Z,9.80
2022-11-22T18:57:30.455Z,9.80
2022-11-22T19:00:02.868Z,9.80
2022-11-22T19:02:34.826Z,9.80
2022-11-22T19:05:07.113Z,9.80
2022-11-22T19:07:39.576Z,9.80
2022-11-22T19:10:11.539Z,9.70
2022-11-22T19:12:43.703Z,9.70
2022-11-22T19:15:16.692Z,9.80
2022-11-22T19:17:48.746Z,9.80
2022-11-22T19:20:47.205Z,9.80
2022-11-22T19:23:12.741Z,9.80
2022-11-22T19:25:44.670Z,9.80
2022-11-22T19:28:16.610Z,9.80
2022-11-22T19:30:48.501Z,9.80
2022-11-22T19:33:20.568Z,9.80
2022-11-22T19:36:01.191Z,9.80
2022-11-22T19:38:33.256Z,9.80
2022-11-22T19:41:20.555Z,9.80
2022-11-22T19:43:52.830Z,9.80
2022-11-22T19:46:26.434Z,9.80
2022-11-22T19:49:00.029Z,9.80
2022-11-22T19:51:32.826Z,9.80
2022-11-22T19:54:05.818Z,9.80
2022-11-22T19:56:39.010Z,9.80
2022-11-22T19:59:15.629Z,9.90
2022-11-22T20:01:47.750Z,9.80
2022-11-22T20:04:19.741Z,9.80
2022-11-22T20:06:51.641Z,9.90
2022-11-22T20:09:24.128Z,9.90
2022-11-22T20:11:56.045Z,9.90
2022-11-22T20:14:28.206Z,9.90
2022-11-22T20:17:00.418Z,9.90
2022-11-22T20:19:34.433Z,9.90
2022-11-22T20:22:06.705Z,9.90
2022-11-22T20:24:38.812Z,9.90
2022-11-22T20:27:11.196Z,9.90
2022-11-22T20:29:43.718Z,9.90
2022-11-22T20:32:15.694Z,9.90
2022-11-22T20:34:47.643Z,9.90
2022-11-22T20:37:19.719Z,9.90
2022-11-22T20:39:51.662Z,9.90
2022-11-22T20:42:34.022Z,9.90
2022-11-22T20:45:08.755Z,9.90
2022-11-22T20:47:40.847Z,9.80
2022-11-22T20:50:12.778Z,9.80
2022-11-22T20:52:44.769Z,9.80
2022-11-22T20:55:16.757Z,9.80
2022-11-22T20:57:48.727Z,9.80
2022-11-22T21:00:20.685Z,9.80
2022-11-22T21:02:52.639Z,9.80
2022-11-22T21:05:24.619Z,9.80
2022-11-22T21:07:58.333Z,9.90
2022-11-22T21:10:33.167Z,9.80
2022-11-22T21:13:05.267Z,9.80
2022-11-22T21:15:37.247Z,9.80
2022-11-22T21:18:25.278Z,9.80
2022-11-22T21:21:12.992Z,9.80
2022-11-22T21:23:45.012Z,9.80
2022-11-22T21:26:17.325Z,9.80
2022-11-22T21:28:50.175Z,9.80
2022-11-22T21:31:23.244Z,9.80
2022-11-22T21:33:55.396Z,9.70
2022-11-22T21:36:27.413Z,9.70
2022-11-22T21:38:59.411Z,9.80
2022-11-22T21:41:39.697Z,9.80
2022-11-22T21:44:12.450Z,9.80
2022-11-22T21:46:44.436Z,9.80
2022-11-22T21:49:16.353Z,9.90
2022-11-22T21:51:49.526Z,9.90
2022-11-22T21:54:22.072Z,9.90
2022-11-22T21:56:57.297Z,9.90
2022-11-22T21:59:32.521Z,9.90
2022-11-22T22:02:04.759Z,9.90
2022-11-22T22:04:36.724Z,9.90
2022-11-22T22:07:23.608Z,9.90
2022-11-22T22:10:00.625Z,9.90
2022-11-22T22:12:32.650Z,9.90
2022-11-22T22:15:05.559Z,9.90
2022-11-22T22:17:37.545Z,9.90
2022-11-22T22:20:10.148Z,9.90
2022-11-22T22:22:42.107Z,9.90
2022-11-22T22:25:14.241Z,9.90
2022-11-22T22:27:46.197Z,9.90
2022-11-22T22:30:18.307Z,9.90
2022-11-22T22:32:50.289Z,9.90
2022-11-22T22:35:23.221Z,9.90
2022-11-22T22:37:55.149Z,9.90
2022-11-22T22:40:27.070Z,10.00
2022-11-22T22:42:58.997Z,9.90
2022-11-22T22:45:30.926Z,10.00
2022-11-22T22:48:02.913Z,10.00
2022-11-22T22:50:34.839Z,9.90
2022-11-22T22:53:06.921Z,10.00
2022-11-22T22:55:38.896Z,10.00
2022-11-22T22:58:12.515Z,10.00
2022-11-22T23:00:44.816Z,10.00
2022-11-22T23:03:16.781Z,10.00
2022-11-22T23:05:48.722Z,10.00
2022-11-22T23:08:20.661Z,9.90
2022-11-22T23:10:52.550Z,10.00
2022-11-22T23:13:25.650Z,10.00
2022-11-22T23:16:00.298Z,10.00
2022-11-22T23:18:37.105Z,10.00
2022-11-22T23:21:14.032Z,10.00
2022-11-22T23:23:45.886Z,10.00
2022-11-22T23:26:17.778Z,10.00
2022-11-22T23:28:50.868Z,10.00
2022-11-22T23:31:22.802Z,10.10
2022-11-22T23:33:55.115Z,10.10
2022-11-22T23:36:27.493Z,10.10
2022-11-22T23:38:59.485Z,10.10
2022-11-22T23:41:31.349Z,10.10
2022-11-22T23:44:03.850Z,10.10
2022-11-22T23:46:35.979Z,10.10
2022-11-22T23:49:08.236Z,10.10
2022-11-22T23:51:40.435Z,10.10
2022-11-22T23:54:12.414Z,10.10
2022-11-22T23:56:44.369Z,10.10
2022-11-22T23:59:17.721Z,10.10
